sensor_id;sensor_type;location;lat;lon;timestamp;P1;durP1;ratioP1;P2;durP2;ratioP2
20721;SDS011;10522;52.198;9.890;2023-05-07T00:01:56;41.90;;;26.47;;
20721;SDS011;10522;52.198;9.890;2023-05-07T00:04:21;38.13;;;26.67;;
20721;SDS011;10522;52.198;9.890;2023-05-07T00:06:47;42.17;;;26.90;;
20721;SDS011;10522;52.198;9.890;2023-05-07T00:09:13;40.57;;;27.07;;
20721;SDS011;10522;52.198;9.890;2023-05-07T00:11:39;41.17;;;29.10;;
20721;SDS011;10522;52.198;9.890;2023-05-07T00:14:05;41.80;;;26.73;;
20721;SDS011;10522;52.198;9.890;2023-05-07T00:16:31;39.83;;;27.00;;
20721;SDS011;10522;52.198;9.890;2023-05-07T00:18:57;41.17;;;27.27;;
20721;SDS011;10522;52.198;9.890;2023-05-07T00:21:22;43.60;;;27.17;;
20721;SDS011;10522;52.198;9.890;2023-05-07T00:23:51;42.63;;;27.20;;
20721;SDS011;10522;52.198;9.890;2023-05-07T00:26:17;42.17;;;27.60;;
20721;SDS011;10522;52.198;9.890;2023-05-07T00:28:43;38.27;;;24.03;;
20721;SDS011;10522;52.198;9.890;2023-05-07T00:31:08;42.40;;;28.47;;
20721;SDS011;10522;52.198;9.890;2023-05-07T00:33:34;41.83;;;27.00;;
20721;SDS011;10522;52.198;9.890;2023-05-07T00:35:59;40.43;;;26.47;;
20721;SDS011;10522;52.198;9.890;2023-05-07T00:38:26;40.03;;;27.63;;
20721;SDS011;10522;52.198;9.890;2023-05-07T00:40:52;41.27;;;27.60;;
20721;SDS011;10522;52.198;9.890;2023-05-07T00:43:18;41.07;;;24.83;;
20721;SDS011;10522;52.198;9.890;2023-05-07T00:45:43;38.83;;;24.77;;
20721;SDS011;10522;52.198;9.890;2023-05-07T00:48:09;41.33;;;26.80;;
20721;SDS011;10522;52.198;9.890;2023-05-07T00:50:35;44.23;;;26.87;;
20721;SDS011;10522;52.198;9.890;2023-05-07T00:53:00;45.47;;;28.33;;
20721;SDS011;10522;52.198;9.890;2023-05-07T00:55:26;40.17;;;25.23;;
20721;SDS011;10522;52.198;9.890;2023-05-07T00:57:52;41.07;;;26.17;;
20721;SDS011;10522;52.198;9.890;2023-05-07T01:00:18;39.60;;;26.47;;
20721;SDS011;10522;52.198;9.890;2023-05-07T01:02:44;46.40;;;27.07;;
20721;SDS011;10522;52.198;9.890;2023-05-07T01:05:12;44.97;;;28.20;;
20721;SDS011;10522;52.198;9.890;2023-05-07T01:07:39;45.57;;;27.50;;
20721;SDS011;10522;52.198;9.890;2023-05-07T01:10:07;43.13;;;27.80;;
20721;SDS011;10522;52.198;9.890;2023-05-07T01:12:34;42.87;;;28.67;;
20721;SDS011;10522;52.198;9.890;2023-05-07T01:15:02;41.63;;;26.40;;
20721;SDS011;10522;52.198;9.890;2023-05-07T01:17:29;43.93;;;27.60;;
20721;SDS011;10522;52.198;9.890;2023-05-07T01:20:02;45.30;;;26.13;;
20721;SDS011;10522;52.198;9.890;2023-05-07T01:22:30;41.33;;;27.17;;
20721;SDS011;10522;52.198;9.890;2023-05-07T01:25:01;42.40;;;25.00;;
20721;SDS011;10522;52.198;9.890;2023-05-07T01:27:27;43.33;;;27.63;;
20721;SDS011;10522;52.198;9.890;2023-05-07T01:29:53;43.50;;;27.40;;
20721;SDS011;10522;52.198;9.890;2023-05-07T01:32:21;45.83;;;26.63;;
20721;SDS011;10522;52.198;9.890;2023-05-07T01:34:56;43.90;;;27.67;;
20721;SDS011;10522;52.198;9.890;2023-05-07T01:37:23;42.90;;;25.57;;
20721;SDS011;10522;52.198;9.890;2023-05-07T01:39:50;41.80;;;27.00;;
20721;SDS011;10522;52.198;9.890;2023-05-07T01:42:17;39.33;;;24.17;;
20721;SDS011;10522;52.198;9.890;2023-05-07T01:44:43;36.30;;;21.27;;
20721;SDS011;10522;52.198;9.890;2023-05-07T01:47:08;35.33;;;22.37;;
20721;SDS011;10522;52.198;9.890;2023-05-07T01:49:34;37.60;;;21.50;;
20721;SDS011;10522;52.198;9.890;2023-05-07T01:52:00;35.20;;;20.80;;
20721;SDS011;10522;52.198;9.890;2023-05-07T01:54:26;33.87;;;21.77;;
20721;SDS011;10522;52.198;9.890;2023-05-07T01:56:58;38.57;;;20.67;;
20721;SDS011;10522;52.198;9.890;2023-05-07T01:59:25;32.43;;;19.80;;
20721;SDS011;10522;52.198;9.890;2023-05-07T02:01:50;31.07;;;21.37;;
20721;SDS011;10522;52.198;9.890;2023-05-07T02:04:16;27.80;;;17.80;;
20721;SDS011;10522;52.198;9.890;2023-05-07T02:06:42;32.47;;;18.37;;
20721;SDS011;10522;52.198;9.890;2023-05-07T02:09:08;29.57;;;19.97;;
20721;SDS011;10522;52.198;9.890;2023-05-07T02:11:34;28.17;;;19.37;;
20721;SDS011;10522;52.198;9.890;2023-05-07T02:13:59;31.73;;;19.70;;
20721;SDS011;10522;52.198;9.890;2023-05-07T02:16:25;31.77;;;19.67;;
20721;SDS011;10522;52.198;9.890;2023-05-07T02:18:51;26.83;;;17.60;;
20721;SDS011;10522;52.198;9.890;2023-05-07T02:21:16;28.77;;;17.47;;
20721;SDS011;10522;52.198;9.890;2023-05-07T02:23:42;27.17;;;17.10;;
20721;SDS011;10522;52.198;9.890;2023-05-07T02:26:08;27.03;;;15.77;;
20721;SDS011;10522;52.198;9.890;2023-05-07T02:28:33;25.13;;;16.97;;
20721;SDS011;10522;52.198;9.890;2023-05-07T02:31:02;27.07;;;16.83;;
20721;SDS011;10522;52.198;9.890;2023-05-07T02:33:28;26.80;;;16.90;;
20721;SDS011;10522;52.198;9.890;2023-05-07T02:35:54;27.53;;;17.40;;
20721;SDS011;10522;52.198;9.890;2023-05-07T02:38:20;26.63;;;17.40;;
20721;SDS011;10522;52.198;9.890;2023-05-07T02:40:45;28.10;;;17.50;;
20721;SDS011;10522;52.198;9.890;2023-05-07T02:43:11;23.67;;;15.67;;
20721;SDS011;10522;52.198;9.890;2023-05-07T02:45:37;23.33;;;15.60;;
20721;SDS011;10522;52.198;9.890;2023-05-07T02:48:02;26.03;;;15.27;;
20721;SDS011;10522;52.198;9.890;2023-05-07T02:50:29;25.17;;;15.70;;
20721;SDS011;10522;52.198;9.890;2023-05-07T02:52:55;23.40;;;16.80;;
20721;SDS011;10522;52.198;9.890;2023-05-07T02:55:20;23.07;;;15.60;;
20721;SDS011;10522;52.198;9.890;2023-05-07T02:57:46;22.33;;;15.27;;
20721;SDS011;10522;52.198;9.890;2023-05-07T03:00:21;23.07;;;16.37;;
20721;SDS011;10522;52.198;9.890;2023-05-07T03:02:47;25.33;;;15.83;;
20721;SDS011;10522;52.198;9.890;2023-05-07T03:05:12;27.67;;;17.43;;
20721;SDS011;10522;52.198;9.890;2023-05-07T03:07:39;25.83;;;18.23;;
20721;SDS011;10522;52.198;9.890;2023-05-07T03:10:05;26.20;;;15.77;;
20721;SDS011;10522;52.198;9.890;2023-05-07T03:12:31;23.53;;;15.67;;
20721;SDS011;10522;52.198;9.890;2023-05-07T03:14:57;25.87;;;16.43;;
20721;SDS011;10522;52.198;9.890;2023-05-07T03:17:22;24.20;;;16.47;;
20721;SDS011;10522;52.198;9.890;2023-05-07T03:19:48;23.03;;;16.43;;
20721;SDS011;10522;52.198;9.890;2023-05-07T03:22:14;26.77;;;16.87;;
20721;SDS011;10522;52.198;9.890;2023-05-07T03:24:39;22.87;;;16.23;;
20721;SDS011;10522;52.198;9.890;2023-05-07T03:27:05;24.13;;;16.63;;
20721;SDS011;10522;52.198;9.890;2023-05-07T03:29:31;25.37;;;16.93;;
20721;SDS011;10522;52.198;9.890;2023-05-07T03:31:56;24.40;;;16.43;;
20721;SDS011;10522;52.198;9.890;2023-05-07T03:34:22;24.70;;;16.37;;
20721;SDS011;10522;52.198;9.890;2023-05-07T03:36:48;24.27;;;15.97;;
20721;SDS011;10522;52.198;9.890;2023-05-07T03:39:14;25.47;;;16.03;;
20721;SDS011;10522;52.198;9.890;2023-05-07T03:41:40;24.93;;;16.23;;
20721;SDS011;10522;52.198;9.890;2023-05-07T03:44:05;24.20;;;16.63;;
20721;SDS011;10522;52.198;9.890;2023-05-07T03:46:31;26.47;;;17.10;;
20721;SDS011;10522;52.198;9.890;2023-05-07T03:48:57;22.40;;;15.43;;
20721;SDS011;10522;52.198;9.890;2023-05-07T03:51:23;25.87;;;16.70;;
20721;SDS011;10522;52.198;9.890;2023-05-07T03:53:49;23.57;;;15.37;;
20721;SDS011;10522;52.198;9.890;2023-05-07T03:56:17;21.97;;;15.53;;
20721;SDS011;10522;52.198;9.890;2023-05-07T03:58:43;23.40;;;16.37;;
20721;SDS011;10522;52.198;9.890;2023-05-07T04:01:09;25.27;;;16.70;;
20721;SDS011;10522;52.198;9.890;2023-05-07T04:03:34;24.60;;;15.80;;
20721;SDS011;10522;52.198;9.890;2023-05-07T04:06:00;22.70;;;15.70;;
20721;SDS011;10522;52.198;9.890;2023-05-07T04:08:26;22.40;;;15.47;;
20721;SDS011;10522;52.198;9.890;2023-05-07T04:10:55;20.90;;;15.40;;
20721;SDS011;10522;52.198;9.890;2023-05-07T04:13:24;24.20;;;15.93;;
20721;SDS011;10522;52.198;9.890;2023-05-07T04:15:50;21.33;;;14.20;;
20721;SDS011;10522;52.198;9.890;2023-05-07T04:18:17;21.53;;;14.27;;
20721;SDS011;10522;52.198;9.890;2023-05-07T04:20:43;24.03;;;15.10;;
20721;SDS011;10522;52.198;9.890;2023-05-07T04:23:08;23.03;;;15.73;;
20721;SDS011;10522;52.198;9.890;2023-05-07T04:25:34;24.57;;;15.43;;
20721;SDS011;10522;52.198;9.890;2023-05-07T04:28:00;22.77;;;14.43;;
20721;SDS011;10522;52.198;9.890;2023-05-07T04:30:25;25.27;;;15.20;;
20721;SDS011;10522;52.198;9.890;2023-05-07T04:32:51;21.37;;;14.40;;
20721;SDS011;10522;52.198;9.890;2023-05-07T04:35:17;19.33;;;13.70;;
20721;SDS011;10522;52.198;9.890;2023-05-07T04:37:43;19.90;;;13.83;;
20721;SDS011;10522;52.198;9.890;2023-05-07T04:40:09;21.13;;;14.77;;
20721;SDS011;10522;52.198;9.890;2023-05-07T04:42:35;21.20;;;14.10;;
20721;SDS011;10522;52.198;9.890;2023-05-07T04:45:01;22.47;;;14.10;;
20721;SDS011;10522;52.198;9.890;2023-05-07T04:47:27;22.93;;;14.27;;
20721;SDS011;10522;52.198;9.890;2023-05-07T04:49:53;21.60;;;14.83;;
20721;SDS011;10522;52.198;9.890;2023-05-07T04:52:18;20.47;;;12.87;;
20721;SDS011;10522;52.198;9.890;2023-05-07T04:54:44;21.30;;;14.53;;
20721;SDS011;10522;52.198;9.890;2023-05-07T04:57:09;21.97;;;14.37;;
20721;SDS011;10522;52.198;9.890;2023-05-07T04:59:35;22.60;;;14.03;;
20721;SDS011;10522;52.198;9.890;2023-05-07T05:02:01;20.63;;;13.57;;
20721;SDS011;10522;52.198;9.890;2023-05-07T05:04:26;22.20;;;14.27;;
20721;SDS011;10522;52.198;9.890;2023-05-07T05:06:52;21.03;;;14.00;;
20721;SDS011;10522;52.198;9.890;2023-05-07T05:09:17;22.70;;;13.60;;
20721;SDS011;10522;52.198;9.890;2023-05-07T05:11:43;19.33;;;12.97;;
20721;SDS011;10522;52.198;9.890;2023-05-07T05:14:09;20.13;;;13.67;;
20721;SDS011;10522;52.198;9.890;2023-05-07T05:16:34;20.10;;;12.00;;
20721;SDS011;10522;52.198;9.890;2023-05-07T05:19:01;20.23;;;12.90;;
20721;SDS011;10522;52.198;9.890;2023-05-07T05:21:26;19.17;;;12.00;;
20721;SDS011;10522;52.198;9.890;2023-05-07T05:23:52;15.27;;;10.77;;
20721;SDS011;10522;52.198;9.890;2023-05-07T05:26:18;17.00;;;11.93;;
20721;SDS011;10522;52.198;9.890;2023-05-07T05:28:43;18.63;;;12.30;;
20721;SDS011;10522;52.198;9.890;2023-05-07T05:31:09;19.80;;;12.33;;
20721;SDS011;10522;52.198;9.890;2023-05-07T05:33:35;16.00;;;10.70;;
20721;SDS011;10522;52.198;9.890;2023-05-07T05:36:00;19.30;;;12.00;;
20721;SDS011;10522;52.198;9.890;2023-05-07T05:38:26;18.30;;;11.63;;
20721;SDS011;10522;52.198;9.890;2023-05-07T05:40:52;18.27;;;11.90;;
20721;SDS011;10522;52.198;9.890;2023-05-07T05:43:17;15.93;;;10.87;;
20721;SDS011;10522;52.198;9.890;2023-05-07T05:45:43;16.00;;;10.83;;
20721;SDS011;10522;52.198;9.890;2023-05-07T05:48:09;16.43;;;11.03;;
20721;SDS011;10522;52.198;9.890;2023-05-07T05:50:34;17.23;;;11.00;;
20721;SDS011;10522;52.198;9.890;2023-05-07T05:53:02;16.33;;;10.43;;
20721;SDS011;10522;52.198;9.890;2023-05-07T05:55:28;17.30;;;10.73;;
20721;SDS011;10522;52.198;9.890;2023-05-07T05:57:54;19.20;;;11.20;;
20721;SDS011;10522;52.198;9.890;2023-05-07T06:00:19;16.53;;;11.50;;
20721;SDS011;10522;52.198;9.890;2023-05-07T06:02:47;16.23;;;10.13;;
20721;SDS011;10522;52.198;9.890;2023-05-07T06:05:13;13.90;;;10.27;;
20721;SDS011;10522;52.198;9.890;2023-05-07T06:07:39;14.43;;;9.90;;
20721;SDS011;10522;52.198;9.890;2023-05-07T06:10:05;12.60;;;9.33;;
20721;SDS011;10522;52.198;9.890;2023-05-07T06:12:31;14.33;;;9.67;;
20721;SDS011;10522;52.198;9.890;2023-05-07T06:14:57;13.43;;;9.37;;
20721;SDS011;10522;52.198;9.890;2023-05-07T06:17:22;16.00;;;9.27;;
20721;SDS011;10522;52.198;9.890;2023-05-07T06:19:48;15.97;;;10.10;;
20721;SDS011;10522;52.198;9.890;2023-05-07T06:22:14;15.33;;;10.13;;
20721;SDS011;10522;52.198;9.890;2023-05-07T06:24:39;13.90;;;9.87;;
20721;SDS011;10522;52.198;9.890;2023-05-07T06:27:05;11.53;;;8.67;;
20721;SDS011;10522;52.198;9.890;2023-05-07T06:29:31;13.00;;;8.83;;
20721;SDS011;10522;52.198;9.890;2023-05-07T06:32:05;12.57;;;8.77;;
20721;SDS011;10522;52.198;9.890;2023-05-07T06:34:38;14.67;;;9.77;;
20721;SDS011;10522;52.198;9.890;2023-05-07T06:37:04;13.53;;;9.00;;
20721;SDS011;10522;52.198;9.890;2023-05-07T06:39:31;11.60;;;8.40;;
20721;SDS011;10522;52.198;9.890;2023-05-07T06:41:57;11.33;;;7.63;;
20721;SDS011;10522;52.198;9.890;2023-05-07T06:44:22;10.83;;;8.03;;
20721;SDS011;10522;52.198;9.890;2023-05-07T06:46:48;11.60;;;8.57;;
20721;SDS011;10522;52.198;9.890;2023-05-07T06:49:14;10.30;;;7.80;;
20721;SDS011;10522;52.198;9.890;2023-05-07T06:51:40;11.53;;;8.37;;
20721;SDS011;10522;52.198;9.890;2023-05-07T06:54:05;8.97;;;6.90;;
20721;SDS011;10522;52.198;9.890;2023-05-07T06:56:31;12.27;;;7.57;;
20721;SDS011;10522;52.198;9.890;2023-05-07T06:58:57;10.50;;;7.87;;
20721;SDS011;10522;52.198;9.890;2023-05-07T07:01:24;10.30;;;7.80;;
20721;SDS011;10522;52.198;9.890;2023-05-07T07:03:50;10.37;;;8.00;;
20721;SDS011;10522;52.198;9.890;2023-05-07T07:06:16;12.17;;;7.90;;
20721;SDS011;10522;52.198;9.890;2023-05-07T07:08:41;10.13;;;7.73;;
20721;SDS011;10522;52.198;9.890;2023-05-07T07:11:08;11.27;;;8.00;;
20721;SDS011;10522;52.198;9.890;2023-05-07T07:13:33;10.90;;;7.33;;
20721;SDS011;10522;52.198;9.890;2023-05-07T07:15:59;12.10;;;8.03;;
20721;SDS011;10522;52.198;9.890;2023-05-07T07:18:25;11.20;;;7.73;;
20721;SDS011;10522;52.198;9.890;2023-05-07T07:20:51;12.07;;;8.03;;
20721;SDS011;10522;52.198;9.890;2023-05-07T07:23:16;11.60;;;8.30;;
20721;SDS011;10522;52.198;9.890;2023-05-07T07:25:42;9.80;;;7.70;;
20721;SDS011;10522;52.198;9.890;2023-05-07T07:28:07;10.87;;;8.27;;
20721;SDS011;10522;52.198;9.890;2023-05-07T07:30:33;14.10;;;8.67;;
20721;SDS011;10522;52.198;9.890;2023-05-07T07:32:59;9.90;;;7.57;;
20721;SDS011;10522;52.198;9.890;2023-05-07T07:35:31;10.33;;;8.00;;
20721;SDS011;10522;52.198;9.890;2023-05-07T07:37:57;11.33;;;7.40;;
20721;SDS011;10522;52.198;9.890;2023-05-07T07:40:23;9.77;;;7.70;;
20721;SDS011;10522;52.198;9.890;2023-05-07T07:42:49;10.57;;;7.70;;
20721;SDS011;10522;52.198;9.890;2023-05-07T07:45:16;8.10;;;7.13;;
20721;SDS011;10522;52.198;9.890;2023-05-07T07:47:41;11.53;;;8.30;;
20721;SDS011;10522;52.198;9.890;2023-05-07T07:50:07;9.27;;;7.20;;
20721;SDS011;10522;52.198;9.890;2023-05-07T07:52:33;11.50;;;7.93;;
20721;SDS011;10522;52.198;9.890;2023-05-07T07:54:59;12.37;;;8.80;;
20721;SDS011;10522;52.198;9.890;2023-05-07T07:57:25;11.93;;;9.00;;
20721;SDS011;10522;52.198;9.890;2023-05-07T07:59:50;12.30;;;9.57;;
20721;SDS011;10522;52.198;9.890;2023-05-07T08:02:16;13.97;;;10.53;;
20721;SDS011;10522;52.198;9.890;2023-05-07T08:04:42;12.10;;;9.60;;
20721;SDS011;10522;52.198;9.890;2023-05-07T08:07:08;13.33;;;9.60;;
20721;SDS011;10522;52.198;9.890;2023-05-07T08:09:34;14.83;;;11.37;;
20721;SDS011;10522;52.198;9.890;2023-05-07T08:12:00;13.60;;;9.70;;
20721;SDS011;10522;52.198;9.890;2023-05-07T08:14:26;13.60;;;11.00;;
20721;SDS011;10522;52.198;9.890;2023-05-07T08:16:53;14.03;;;10.67;;
20721;SDS011;10522;52.198;9.890;2023-05-07T08:19:19;15.10;;;10.93;;
20721;SDS011;10522;52.198;9.890;2023-05-07T08:21:45;14.27;;;10.87;;
20721;SDS011;10522;52.198;9.890;2023-05-07T08:24:12;15.47;;;10.77;;
20721;SDS011;10522;52.198;9.890;2023-05-07T08:26:39;14.67;;;10.40;;
20721;SDS011;10522;52.198;9.890;2023-05-07T08:29:05;13.57;;;10.30;;
20721;SDS011;10522;52.198;9.890;2023-05-07T08:31:30;15.37;;;10.87;;
20721;SDS011;10522;52.198;9.890;2023-05-07T08:33:57;15.17;;;10.67;;
20721;SDS011;10522;52.198;9.890;2023-05-07T08:36:23;14.03;;;10.20;;
20721;SDS011;10522;52.198;9.890;2023-05-07T08:38:49;12.70;;;9.83;;
20721;SDS011;10522;52.198;9.890;2023-05-07T08:41:15;14.53;;;9.40;;
20721;SDS011;10522;52.198;9.890;2023-05-07T08:43:41;11.60;;;9.63;;
20721;SDS011;10522;52.198;9.890;2023-05-07T08:46:08;13.07;;;9.70;;
20721;SDS011;10522;52.198;9.890;2023-05-07T08:48:35;12.60;;;9.77;;
20721;SDS011;10522;52.198;9.890;2023-05-07T08:51:01;12.83;;;9.47;;
20721;SDS011;10522;52.198;9.890;2023-05-07T08:53:27;11.93;;;9.67;;
20721;SDS011;10522;52.198;9.890;2023-05-07T08:55:53;12.83;;;9.93;;
20721;SDS011;10522;52.198;9.890;2023-05-07T08:58:19;13.57;;;9.77;;
20721;SDS011;10522;52.198;9.890;2023-05-07T09:00:44;11.37;;;8.80;;
20721;SDS011;10522;52.198;9.890;2023-05-07T09:03:12;11.17;;;9.30;;
20721;SDS011;10522;52.198;9.890;2023-05-07T09:05:37;12.07;;;8.43;;
20721;SDS011;10522;52.198;9.890;2023-05-07T09:08:03;11.60;;;8.97;;
20721;SDS011;10522;52.198;9.890;2023-05-07T09:10:32;10.87;;;8.37;;
20721;SDS011;10522;52.198;9.890;2023-05-07T09:12:58;12.27;;;8.47;;
20721;SDS011;10522;52.198;9.890;2023-05-07T09:15:26;13.07;;;9.80;;
20721;SDS011;10522;52.198;9.890;2023-05-07T09:17:53;11.93;;;8.50;;
20721;SDS011;10522;52.198;9.890;2023-05-07T09:20:19;11.90;;;9.47;;
20721;SDS011;10522;52.198;9.890;2023-05-07T09:22:45;12.17;;;9.47;;
20721;SDS011;10522;52.198;9.890;2023-05-07T09:25:10;12.93;;;10.20;;
20721;SDS011;10522;52.198;9.890;2023-05-07T09:27:36;13.77;;;10.33;;
20721;SDS011;10522;52.198;9.890;2023-05-07T09:30:08;14.87;;;11.13;;
20721;SDS011;10522;52.198;9.890;2023-05-07T09:32:34;13.03;;;10.03;;
20721;SDS011;10522;52.198;9.890;2023-05-07T09:35:03;15.27;;;10.63;;
20721;SDS011;10522;52.198;9.890;2023-05-07T09:37:30;14.67;;;11.30;;
20721;SDS011;10522;52.198;9.890;2023-05-07T09:39:56;15.70;;;12.17;;
20721;SDS011;10522;52.198;9.890;2023-05-07T09:42:25;15.80;;;11.60;;
20721;SDS011;10522;52.198;9.890;2023-05-07T09:44:53;16.50;;;11.80;;
20721;SDS011;10522;52.198;9.890;2023-05-07T09:47:19;15.87;;;12.10;;
20721;SDS011;10522;52.198;9.890;2023-05-07T09:49:48;16.73;;;12.57;;
20721;SDS011;10522;52.198;9.890;2023-05-07T09:52:14;16.20;;;12.00;;
20721;SDS011;10522;52.198;9.890;2023-05-07T09:54:41;18.13;;;12.10;;
20721;SDS011;10522;52.198;9.890;2023-05-07T09:57:09;18.20;;;13.00;;
20721;SDS011;10522;52.198;9.890;2023-05-07T09:59:37;18.13;;;13.40;;
20721;SDS011;10522;52.198;9.890;2023-05-07T10:02:04;17.13;;;13.77;;
20721;SDS011;10522;52.198;9.890;2023-05-07T10:04:31;17.57;;;12.53;;
20721;SDS011;10522;52.198;9.890;2023-05-07T10:06:57;17.87;;;13.80;;
20721;SDS011;10522;52.198;9.890;2023-05-07T10:09:25;17.03;;;12.30;;
20721;SDS011;10522;52.198;9.890;2023-05-07T10:11:51;17.10;;;12.47;;
20721;SDS011;10522;52.198;9.890;2023-05-07T10:14:19;15.17;;;11.73;;
20721;SDS011;10522;52.198;9.890;2023-05-07T10:16:46;17.20;;;11.67;;
20721;SDS011;10522;52.198;9.890;2023-05-07T10:19:13;13.60;;;11.53;;
20721;SDS011;10522;52.198;9.890;2023-05-07T10:21:54;15.43;;;11.50;;
20721;SDS011;10522;52.198;9.890;2023-05-07T10:24:25;14.83;;;12.33;;
20721;SDS011;10522;52.198;9.890;2023-05-07T10:26:52;14.30;;;11.30;;
20721;SDS011;10522;52.198;9.890;2023-05-07T10:29:23;16.03;;;11.73;;
20721;SDS011;10522;52.198;9.890;2023-05-07T10:32:05;15.30;;;11.30;;
20721;SDS011;10522;52.198;9.890;2023-05-07T10:34:42;16.13;;;12.23;;
20721;SDS011;10522;52.198;9.890;2023-05-07T10:37:10;15.60;;;11.97;;
20721;SDS011;10522;52.198;9.890;2023-05-07T10:39:36;14.97;;;11.80;;
20721;SDS011;10522;52.198;9.890;2023-05-07T10:42:12;14.97;;;11.20;;
20721;SDS011;10522;52.198;9.890;2023-05-07T10:44:38;13.90;;;11.13;;
20721;SDS011;10522;52.198;9.890;2023-05-07T10:47:07;14.73;;;11.40;;
20721;SDS011;10522;52.198;9.890;2023-05-07T10:49:34;12.60;;;9.97;;
20721;SDS011;10522;52.198;9.890;2023-05-07T10:52:20;14.17;;;11.10;;
20721;SDS011;10522;52.198;9.890;2023-05-07T10:54:49;13.67;;;11.37;;
20721;SDS011;10522;52.198;9.890;2023-05-07T10:57:53;12.97;;;10.70;;
20721;SDS011;10522;52.198;9.890;2023-05-07T11:05:25;13.50;;;10.57;;
20721;SDS011;10522;52.198;9.890;2023-05-07T11:10:21;15.77;;;10.37;;
20721;SDS011;10522;52.198;9.890;2023-05-07T11:12:48;13.70;;;10.77;;
20721;SDS011;10522;52.198;9.890;2023-05-07T11:15:15;15.80;;;10.67;;
20721;SDS011;10522;52.198;9.890;2023-05-07T11:17:59;11.30;;;9.63;;
20721;SDS011;10522;52.198;9.890;2023-05-07T11:26:07;13.50;;;10.57;;
20721;SDS011;10522;52.198;9.890;2023-05-07T11:28:37;13.13;;;9.63;;
20721;SDS011;10522;52.198;9.890;2023-05-07T11:31:07;13.40;;;10.10;;
20721;SDS011;10522;52.198;9.890;2023-05-07T11:33:33;12.27;;;9.70;;
20721;SDS011;10522;52.198;9.890;2023-05-07T11:36:00;11.30;;;10.10;;
20721;SDS011;10522;52.198;9.890;2023-05-07T11:38:28;15.17;;;11.53;;
20721;SDS011;10522;52.198;9.890;2023-05-07T11:40:58;14.13;;;9.97;;
20721;SDS011;10522;52.198;9.890;2023-05-07T11:43:29;14.53;;;9.43;;
20721;SDS011;10522;52.198;9.890;2023-05-07T11:45:58;11.37;;;9.07;;
20721;SDS011;10522;52.198;9.890;2023-05-07T11:48:33;13.07;;;9.57;;
20721;SDS011;10522;52.198;9.890;2023-05-07T11:51:03;12.37;;;9.77;;
20721;SDS011;10522;52.198;9.890;2023-05-07T11:53:37;9.83;;;8.50;;
20721;SDS011;10522;52.198;9.890;2023-05-07T11:58:40;10.63;;;8.67;;
20721;SDS011;10522;52.198;9.890;2023-05-07T12:01:07;10.50;;;8.63;;
20721;SDS011;10522;52.198;9.890;2023-05-07T12:03:36;10.50;;;8.50;;
20721;SDS011;10522;52.198;9.890;2023-05-07T12:06:07;9.43;;;8.20;;
20721;SDS011;10522;52.198;9.890;2023-05-07T12:08:36;10.93;;;8.00;;
20721;SDS011;10522;52.198;9.890;2023-05-07T12:11:09;9.53;;;7.87;;
20721;SDS011;10522;52.198;9.890;2023-05-07T12:13:38;11.20;;;8.00;;
20721;SDS011;10522;52.198;9.890;2023-05-07T12:16:04;11.23;;;8.27;;
20721;SDS011;10522;52.198;9.890;2023-05-07T12:18:31;10.23;;;7.97;;
20721;SDS011;10522;52.198;9.890;2023-05-07T12:20:57;10.00;;;8.47;;
20721;SDS011;10522;52.198;9.890;2023-05-07T12:23:24;8.37;;;7.33;;
20721;SDS011;10522;52.198;9.890;2023-05-07T12:25:50;9.03;;;7.33;;
20721;SDS011;10522;52.198;9.890;2023-05-07T12:28:16;9.53;;;7.57;;
20721;SDS011;10522;52.198;9.890;2023-05-07T12:30:47;8.97;;;7.30;;
20721;SDS011;10522;52.198;9.890;2023-05-07T12:33:17;8.63;;;7.07;;
20721;SDS011;10522;52.198;9.890;2023-05-07T12:35:47;7.73;;;6.93;;
20721;SDS011;10522;52.198;9.890;2023-05-07T12:38:13;7.30;;;6.60;;
20721;SDS011;10522;52.198;9.890;2023-05-07T12:40:42;7.50;;;6.70;;
20721;SDS011;10522;52.198;9.890;2023-05-07T12:43:26;8.13;;;7.20;;
20721;SDS011;10522;52.198;9.890;2023-05-07T12:45:54;8.03;;;7.20;;
20721;SDS011;10522;52.198;9.890;2023-05-07T12:48:21;9.07;;;7.43;;
20721;SDS011;10522;52.198;9.890;2023-05-07T12:50:49;9.40;;;7.97;;
20721;SDS011;10522;52.198;9.890;2023-05-07T12:53:15;8.17;;;7.27;;
20721;SDS011;10522;52.198;9.890;2023-05-07T12:55:45;11.47;;;9.57;;
20721;SDS011;10522;52.198;9.890;2023-05-07T12:58:16;11.30;;;10.17;;
20721;SDS011;10522;52.198;9.890;2023-05-07T13:00:41;11.60;;;10.33;;
20721;SDS011;10522;52.198;9.890;2023-05-07T13:03:08;14.67;;;10.07;;
20721;SDS011;10522;52.198;9.890;2023-05-07T13:05:34;11.47;;;10.13;;
20721;SDS011;10522;52.198;9.890;2023-05-07T13:07:59;10.80;;;9.50;;
20721;SDS011;10522;52.198;9.890;2023-05-07T13:10:26;12.43;;;10.50;;
20721;SDS011;10522;52.198;9.890;2023-05-07T13:12:52;13.30;;;9.93;;
20721;SDS011;10522;52.198;9.890;2023-05-07T13:15:18;11.77;;;10.57;;
20721;SDS011;10522;52.198;9.890;2023-05-07T13:17:44;12.63;;;10.03;;
20721;SDS011;10522;52.198;9.890;2023-05-07T13:20:10;11.60;;;10.40;;
20721;SDS011;10522;52.198;9.890;2023-05-07T13:22:36;12.63;;;10.50;;
20721;SDS011;10522;52.198;9.890;2023-05-07T13:25:02;11.30;;;10.10;;
20721;SDS011;10522;52.198;9.890;2023-05-07T13:27:28;12.47;;;10.13;;
20721;SDS011;10522;52.198;9.890;2023-05-07T13:29:55;11.70;;;9.83;;
20721;SDS011;10522;52.198;9.890;2023-05-07T13:32:21;10.97;;;9.83;;
20721;SDS011;10522;52.198;9.890;2023-05-07T13:34:47;14.77;;;10.93;;
20721;SDS011;10522;52.198;9.890;2023-05-07T13:37:13;12.57;;;10.13;;
20721;SDS011;10522;52.198;9.890;2023-05-07T13:39:38;12.17;;;9.83;;
20721;SDS011;10522;52.198;9.890;2023-05-07T13:42:04;10.57;;;9.33;;
20721;SDS011;10522;52.198;9.890;2023-05-07T13:44:29;11.93;;;10.03;;
20721;SDS011;10522;52.198;9.890;2023-05-07T13:46:55;11.43;;;10.33;;
20721;SDS011;10522;52.198;9.890;2023-05-07T13:49:20;10.50;;;9.43;;
20721;SDS011;10522;52.198;9.890;2023-05-07T13:51:46;10.63;;;9.63;;
20721;SDS011;10522;52.198;9.890;2023-05-07T13:54:12;11.10;;;9.90;;
20721;SDS011;10522;52.198;9.890;2023-05-07T13:56:37;12.37;;;10.40;;
20721;SDS011;10522;52.198;9.890;2023-05-07T13:59:03;12.40;;;9.93;;
20721;SDS011;10522;52.198;9.890;2023-05-07T14:01:28;10.93;;;9.83;;
20721;SDS011;10522;52.198;9.890;2023-05-07T14:03:56;12.60;;;9.53;;
20721;SDS011;10522;52.198;9.890;2023-05-07T14:06:25;10.67;;;9.50;;
20721;SDS011;10522;52.198;9.890;2023-05-07T14:08:50;9.10;;;8.13;;
20721;SDS011;10522;52.198;9.890;2023-05-07T14:11:16;10.03;;;8.97;;
20721;SDS011;10522;52.198;9.890;2023-05-07T14:13:42;9.70;;;8.70;;
20721;SDS011;10522;52.198;9.890;2023-05-07T14:16:07;16.17;;;11.67;;
20721;SDS011;10522;52.198;9.890;2023-05-07T14:18:33;12.30;;;10.10;;
20721;SDS011;10522;52.198;9.890;2023-05-07T14:21:01;14.97;;;9.23;;
20721;SDS011;10522;52.198;9.890;2023-05-07T14:23:26;9.67;;;7.93;;
20721;SDS011;10522;52.198;9.890;2023-05-07T14:25:52;13.23;;;8.50;;
20721;SDS011;10522;52.198;9.890;2023-05-07T14:28:18;9.67;;;8.27;;
20721;SDS011;10522;52.198;9.890;2023-05-07T14:30:44;11.57;;;9.10;;
20721;SDS011;10522;52.198;9.890;2023-05-07T14:33:10;11.30;;;8.50;;
20721;SDS011;10522;52.198;9.890;2023-05-07T14:35:35;10.60;;;9.43;;
20721;SDS011;10522;52.198;9.890;2023-05-07T14:38:01;11.10;;;9.53;;
20721;SDS011;10522;52.198;9.890;2023-05-07T14:40:26;12.40;;;8.80;;